Time;durP1;ratioP1;P1;durP2;ratioP2;P2;SDS_P1;SDS_P2;PMS_P1;PMS_P2;Temp;Humidity;BMP_temperature;BMP_pressure;BME280_temperature;BME280_humidity;BME280_pressure;Samples;Min_cycle;Max_cycle;Signal;HPM_P1;HPM_P2
2020/12/24 00:00:53;;;;;;;19.77;13.43;;;;;;;8.46;92.54;97937.66;250757;1148;22944;-78
2020/12/24 00:05:55;;;;;;;15.17;10.83;;;;;;;8.52;92.57;97947.15;250745;1156;23027;-76
2020/12/24 00:10:58;;;;;;;14.77;10.37;;;;;;;8.56;92.42;97948.14;250663;1148;23076;-77
2020/12/24 00:16:00;;;;;;;15.50;10.67;;;;;;;8.60;92.64;97959.03;250671;1155;22977;-76
2020/12/24 00:21:08;;;;;;;11.70;9.07;;;;;;;8.63;92.56;97951.23;250600;1148;26034;-77
2020/12/24 00:26:10;;;;;;;12.00;8.10;;;;;;;8.67;92.55;97944.20;250995;1152;23077;-77
2020/12/24 00:31:13;;;;;;;13.47;9.00;;;;;;;8.68;92.26;97934.33;250498;1148;22934;-75
2020/12/24 00:36:15;;;;;;;11.37;8.40;;;;;;;8.68;92.12;97937.77;250647;1148;22928;-78
2020/12/24 00:41:17;;;;;;;13.50;8.53;;;;;;;8.68;92.32;97943.12;250804;1147;26381;-75
2020/12/24 00:46:19;;;;;;;11.95;8.45;;;;;;;8.70;92.37;97954.31;250844;1148;22950;-77
2020/12/24 00:51:22;;;;;;;12.60;8.50;;;;;;;8.74;92.41;97951.82;250612;1148;22957;-77
2020/12/24 00:56:24;;;;;;;15.63;9.17;;;;;;;8.77;92.04;97953.89;250557;1151;22886;-81
2020/12/24 01:01:38;;;;;;;15.40;9.67;;;;;;;8.80;92.27;97961.34;250603;1147;23004;-81
2020/12/24 01:06:40;;;;;;;12.83;8.60;;;;;;;8.85;92.24;97953.20;250787;1148;22950;-77
2020/12/24 01:11:42;;;;;;;12.60;8.50;;;;;;;8.87;92.21;97947.56;250705;1147;22963;-78
2020/12/24 01:16:44;;;;;;;10.00;7.70;;;;;;;8.91;91.88;97943.22;250713;1155;22983;-76
2020/12/24 01:21:47;;;;;;;11.73;7.93;;;;;;;8.95;91.65;97944.20;250789;1148;22940;-75
2020/12/24 01:26:49;;;;;;;10.63;7.03;;;;;;;8.96;91.46;97927.09;250786;1153;22921;-76
2020/12/24 01:31:51;;;;;;;7.60;5.80;;;;;;;8.94;91.75;97913.26;250773;1148;26015;-77
2020/12/24 01:36:53;;;;;;;8.93;6.33;;;;;;;8.92;91.53;97907.41;250645;1148;23085;-77
2020/12/24 01:41:56;;;;;;;8.10;6.35;;;;;;;8.95;91.69;97917.49;250629;1148;22954;-78
2020/12/24 01:46:58;;;;;;;9.60;6.23;;;;;;;9.00;91.63;97909.38;250680;1147;22949;-77
2020/12/24 01:52:01;;;;;;;9.83;6.40;;;;;;;9.02;91.38;97869.81;250615;1148;22979;-77
2020/12/24 01:57:03;;;;;;;9.15;6.30;;;;;;;9.04;91.33;97883.66;250576;1156;22904;-75
2020/12/24 02:02:05;;;;;;;8.50;6.00;;;;;;;9.06;91.18;97891.36;250546;1148;23082;-78
2020/12/24 02:07:15;;;;;;;8.00;5.60;;;;;;;9.10;91.31;97896.91;250621;1148;22947;-77
2020/12/24 02:12:19;;;;;;;8.30;6.17;;;;;;;9.13;91.02;97898.98;250639;1148;22912;-78
2020/12/24 02:17:22;;;;;;;8.07;5.50;;;;;;;9.17;91.08;97898.07;250647;1147;26394;-77
2020/12/24 02:22:24;;;;;;;8.55;5.40;;;;;;;9.19;91.05;97890.56;250591;1152;22912;-77
2020/12/24 02:27:25;;;;;;;8.97;5.43;;;;;;;9.23;90.55;97890.73;250618;1150;23423;-77
2020/12/24 02:32:29;;;;;;;6.97;4.90;;;;;;;9.26;90.43;97884.78;250603;1147;22955;-77
2020/12/24 02:37:31;;;;;;;9.23;5.70;;;;;;;9.26;90.44;97879.44;250487;1148;26639;-76
2020/12/24 02:42:33;;;;;;;7.60;5.70;;;;;;;9.24;90.12;97895.00;250229;1148;23040;-77
2020/12/24 02:47:36;;;;;;;7.43;5.80;;;;;;;9.24;90.33;97903.79;250240;1155;22930;-77
2020/12/24 02:52:38;;;;;;;7.17;5.20;;;;;;;9.23;90.24;97896.89;250308;1148;22970;-77
2020/12/24 02:57:40;;;;;;;8.13;5.80;;;;;;;9.21;89.59;97895.60;250227;1148;23146;-76
2020/12/24 03:02:42;;;;;;;7.33;5.83;;;;;;;9.15;89.46;97902.12;250329;1150;22947;-77
2020/12/24 03:07:51;;;;;;;6.60;5.43;;;;;;;9.12;89.50;97906.22;250545;1148;23024;-76
2020/12/24 03:12:54;;;;;;;8.15;6.12;;;;;;;9.08;89.72;97899.89;250498;1148;22922;-76
2020/12/24 03:17:56;;;;;;;8.70;6.53;;;;;;;9.07;89.48;97906.31;250445;1148;22916;-77
2020/12/24 03:22:58;;;;;;;10.20;7.23;;;;;;;9.05;89.32;97903.94;250631;1148;22934;-78
2020/12/24 03:28:00;;;;;;;9.50;6.80;;;;;;;9.03;89.56;97892.75;250501;1153;22928;-76
2020/12/24 03:33:02;;;;;;;9.17;6.63;;;;;;;9.03;89.48;97881.28;250441;1148;22894;-78
2020/12/24 03:38:04;;;;;;;9.93;6.50;;;;;;;9.00;89.28;97877.33;250339;1151;22931;-77
2020/12/24 03:43:06;;;;;;;8.43;6.17;;;;;;;8.97;89.66;97864.58;250166;1148;22918;-77
2020/12/24 03:48:09;;;;;;;7.80;6.37;;;;;;;8.94;89.20;97867.85;250358;1148;23088;-76
2020/12/24 03:53:13;;;;;;;8.15;5.60;;;;;;;8.89;89.44;97858.05;250215;1148;22962;-75
2020/12/24 03:58:14;;;;;;;7.60;5.87;;;;;;;8.87;89.35;97851.42;250096;1156;22949;-77
2020/12/24 04:03:16;;;;;;;9.43;6.53;;;;;;;8.85;89.26;97851.72;250236;1147;23140;-75
2020/12/24 04:08:18;;;;;;;7.43;6.13;;;;;;;8.85;89.46;97853.61;250303;1148;22925;-77
2020/12/24 04:13:20;;;;;;;9.40;6.50;;;;;;;8.83;89.33;97859.25;250288;1148;23273;-77
2020/12/24 04:18:22;;;;;;;9.23;6.57;;;;;;;8.81;89.29;97866.76;250217;1155;22938;-76
2020/12/24 04:23:32;;;;;;;9.50;6.77;;;;;;;8.80;89.03;97867.87;250142;1153;22931;-76
2020/12/24 04:28:35;;;;;;;8.70;6.70;;;;;;;8.75;89.11;97859.17;250464;1149;22949;-76
2020/12/24 04:33:39;;;;;;;12.53;8.47;;;;;;;8.68;89.17;97859.56;250530;1148;23085;-75
2020/12/24 04:38:43;;;;;;;10.55;6.95;;;;;;;8.64;89.18;97863.92;250035;1150;23422;-77
2020/12/24 04:43:47;;;;;;;10.35;7.20;;;;;;;8.58;89.06;97855.22;250225;1151;22944;-77
2020/12/24 04:48:50;;;;;;;9.50;7.30;;;;;;;8.56;89.08;97860.05;250414;1148;22931;-77
2020/12/24 04:53:53;;;;;;;10.10;7.40;;;;;;;8.50;89.33;97854.02;250433;1155;23077;-77
2020/12/24 04:58:56;;;;;;;13.00;7.90;;;;;;;8.47;89.15;97856.51;250139;1148;22934;-77
2020/12/24 05:03:58;;;;;;;12.13;8.47;;;;;;;8.44;89.37;97844.52;250518;1155;23008;-77
2020/12/24 05:09:01;;;;;;;13.77;8.93;;;;;;;8.42;89.35;97840.55;250412;1148;22955;-77
2020/12/24 05:14:24;;;;;;;12.10;8.40;;;;;;;8.44;89.54;97841.84;250142;1148;22932;-77
2020/12/24 05:19:28;;;;;;;12.33;8.80;;;;;;;8.45;89.70;97853.33;250615;1148;22924;-78
2020/12/24 05:24:33;;;;;;;11.90;7.55;;;;;;;8.45;89.50;97856.00;250586;1148;23070;-77
2020/12/24 05:29:37;;;;;;;10.63;7.40;;;;;;;8.46;89.29;97854.92;249972;1148;22980;-77
2020/12/24 05:34:41;;;;;;;13.80;8.45;;;;;;;8.45;89.50;97866.67;250114;1148;23162;-77
2020/12/24 05:39:45;;;;;;;10.00;7.23;;;;;;;8.45;89.52;97877.35;250444;1148;23410;-74
2020/12/24 05:44:49;;;;;;;13.30;8.83;;;;;;;8.48;89.53;97869.55;250357;1148;26022;-75
2020/12/24 05:49:51;;;;;;;11.60;8.05;;;;;;;8.46;89.53;97853.03;250553;1148;22928;-77
2020/12/24 05:54:53;;;;;;;11.17;8.10;;;;;;;8.47;89.29;97840.50;250027;1155;22935;-75
2020/12/24 05:59:57;;;;;;;12.33;8.40;;;;;;;8.45;89.33;97830.13;250406;1148;22917;-77
2020/12/24 06:05:06;;;;;;;13.60;8.93;;;;;;;8.46;89.33;97844.25;250291;1148;22922;-75
2020/12/24 06:10:10;;;;;;;11.07;7.77;;;;;;;8.46;89.54;97833.57;250295;1147;22952;-76
2020/12/24 06:15:16;;;;;;;10.13;7.57;;;;;;;8.45;89.49;97838.13;250075;1151;23791;-76
2020/12/24 06:20:19;;;;;;;10.87;7.20;;;;;;;8.47;89.38;97832.48;250310;1148;26355;-77
2020/12/24 06:25:22;;;;;;;10.20;7.40;;;;;;;8.49;89.52;97822.30;250410;1150;22950;-76
2020/12/24 06:30:28;;;;;;;10.07;6.70;;;;;;;8.51;89.27;97828.14;250215;1148;23016;-78
2020/12/24 06:35:40;;;;;;;11.60;8.30;;;;;;;8.56;89.26;97841.36;250265;1148;26027;-76
2020/12/24 06:40:43;;;;;;;12.23;7.45;;;;;;;8.60;89.21;97842.35;250480;1150;22911;-77
2020/12/24 06:45:45;;;;;;;9.80;6.80;;;;;;;8.61;89.15;97832.48;250479;1147;24445;-76
2020/12/24 06:50:52;;;;;;;12.13;6.73;;;;;;;8.63;89.09;97827.63;250235;1151;22956;-76
2020/12/24 07:01:20;;;;;;;9.40;7.03;;;;;;;8.70;88.72;97842.16;250232;1147;22925;-77
2020/12/24 07:06:41;;;;;;;9.80;6.47;;;;;;;8.73;88.82;97843.45;250432;1153;22940;-77
2020/12/24 07:11:44;;;;;;;9.00;6.65;;;;;;;8.76;88.36;97847.38;250465;1147;23200;-77
2020/12/24 07:16:48;;;;;;;11.13;6.90;;;;;;;8.80;88.45;97841.16;250461;1156;22932;-75
2020/12/24 07:21:51;;;;;;;9.20;6.80;;;;;;;8.83;88.18;97834.44;250300;1148;22944;-77
2020/12/24 07:26:56;;;;;;;11.00;7.10;;;;;;;8.86;87.98;97836.50;250474;1152;22953;-75
2020/12/24 07:32:05;;;;;;;9.65;7.00;;;;;;;8.89;88.03;97841.23;250383;1151;22935;-77
2020/12/24 07:37:09;;;;;;;10.87;7.20;;;;;;;8.92;87.97;97834.52;250339;1148;22947;-77
2020/12/24 07:42:21;;;;;;;11.67;7.77;;;;;;;8.95;87.78;97841.92;250138;1148;23493;-77
2020/12/24 07:47:24;;;;;;;10.93;7.47;;;;;;;8.96;87.81;97838.95;250183;1148;22925;-76
2020/12/24 07:52:27;;;;;;;15.93;8.77;;;;;;;8.95;87.61;97829.34;250609;1148;23038;-75
2020/12/24 07:57:28;;;;;;;12.80;8.00;;;;;;;8.94;87.82;97838.47;250222;1148;22954;-76
2020/12/24 08:02:31;;;;;;;11.87;8.07;;;;;;;8.92;87.71;97829.95;250463;1147;22922;-76
2020/12/24 08:07:33;;;;;;;14.87;8.93;;;;;;;8.94;88.04;97834.98;250741;1148;22947;-76
2020/12/24 08:12:35;;;;;;;11.57;8.10;;;;;;;8.95;88.12;97844.59;250427;1148;27655;-76
2020/12/24 08:17:53;;;;;;;14.53;9.00;;;;;;;8.90;88.03;97832.14;250357;1148;23021;-75
2020/12/24 08:23:09;;;;;;;14.03;9.43;;;;;;;8.80;88.06;97824.33;250692;1147;23023;-81
2020/12/24 08:28:11;;;;;;;13.63;8.83;;;;;;;8.72;88.69;97829.30;250635;1155;22932;-77
2020/12/24 08:33:30;;;;;;;16.03;9.57;;;;;;;8.64;88.96;97813.19;250541;1150;23091;-77
2020/12/24 08:38:32;;;;;;;14.03;9.50;;;;;;;8.58;89.28;97807.17;250687;1148;22924;-76
2020/12/24 08:43:37;;;;;;;13.10;8.20;;;;;;;8.59;89.52;97829.30;250927;1146;22932;-75
2020/12/24 08:48:43;;;;;;;11.97;7.77;;;;;;;8.59;89.78;97827.45;251191;1152;23766;-75
2020/12/24 08:53:46;;;;;;;12.05;7.60;;;;;;;8.59;90.01;97827.45;250624;1152;23017;-77
2020/12/24 08:58:57;;;;;;;13.10;8.10;;;;;;;8.57;89.82;97826.94;250657;1155;22954;-77
2020/12/24 09:04:13;;;;;;;11.73;8.27;;;;;;;8.58;89.81;97827.72;250457;1151;23107;-76
2020/12/24 09:09:26;;;;;;;13.10;8.00;;;;;;;8.59;89.77;97835.45;250701;1148;25909;-77
2020/12/24 09:14:28;;;;;;;11.95;7.05;;;;;;;8.59;90.20;97832.78;250685;1151;22909;-77
2020/12/24 09:19:31;;;;;;;10.10;6.73;;;;;;;8.59;90.20;97831.97;250575;1148;22934;-75
2020/12/24 09:24:33;;;;;;;11.97;8.20;;;;;;;8.61;90.14;97832.48;250599;1150;23178;-77
2020/12/24 09:29:35;;;;;;;14.00;8.57;;;;;;;8.65;90.28;97830.80;250692;1148;23109;-77
2020/12/24 09:34:37;;;;;;;11.50;7.65;;;;;;;8.66;90.34;97819.02;250676;1148;23063;-76
2020/12/24 09:39:39;;;;;;;10.70;8.37;;;;;;;8.63;89.84;97824.95;250901;1148;22956;-76
2020/12/24 09:44:42;;;;;;;14.65;9.10;;;;;;;8.61;90.41;97835.16;250840;1150;23092;-76
2020/12/24 09:49:45;;;;;;;13.57;8.33;;;;;;;8.61;90.58;97824.47;250739;1156;23175;-77
2020/12/24 09:54:47;;;;;;;15.80;9.63;;;;;;;8.60;90.37;97820.22;251024;1151;22957;-76
2020/12/24 09:59:49;;;;;;;15.17;9.27;;;;;;;8.57;90.49;97816.26;250669;1148;23030;-78
2020/12/24 10:04:51;;;;;;;11.90;7.67;;;;;;;8.52;90.71;97824.36;250802;1150;23085;-77
2020/12/24 10:09:53;;;;;;;10.45;7.25;;;;;;;8.49;91.53;97808.95;250494;1148;23095;-76
2020/12/24 10:14:56;;;;;;;14.75;8.25;;;;;;;8.49;91.37;97800.94;250580;1150;22960;-78
2020/12/24 10:19:58;;;;;;;12.37;7.37;;;;;;;8.48;91.08;97813.50;250620;1148;22954;-76
2020/12/24 10:25:00;;;;;;;11.50;7.65;;;;;;;8.45;90.95;97806.09;250692;1148;22956;-77
2020/12/24 10:30:04;;;;;;;12.00;7.05;;;;;;;8.45;91.13;97799.95;250662;1156;22956;-77
2020/12/24 10:35:06;;;;;;;12.90;8.20;;;;;;;8.45;91.14;97802.62;250682;1148;24475;-77
2020/12/24 10:40:10;;;;;;;16.23;9.17;;;;;;;8.46;91.06;97788.98;250812;1147;22971;-75
2020/12/24 10:45:13;;;;;;;14.37;9.03;;;;;;;8.46;90.91;97780.19;250779;1148;22986;-75
2020/12/24 10:50:15;;;;;;;13.85;9.05;;;;;;;8.44;91.08;97783.13;250610;1155;22925;-76
2020/12/24 10:55:17;;;;;;;13.93;9.17;;;;;;;8.44;90.93;97763.67;250746;1148;22964;-76
2020/12/24 11:00:19;;;;;;;16.37;9.83;;;;;;;8.45;90.67;97767.92;250836;1148;26347;-77
2020/12/24 11:05:25;;;;;;;15.27;10.47;;;;;;;8.44;90.83;97759.11;250832;1150;23137;-75
2020/12/24 11:10:27;;;;;;;14.10;9.00;;;;;;;8.43;90.82;97751.41;250558;1150;22935;-75
2020/12/24 11:15:29;;;;;;;13.70;8.30;;;;;;;8.36;90.62;97741.12;250666;1148;22938;-78
2020/12/24 11:20:31;;;;;;;13.30;8.80;;;;;;;8.26;90.58;97725.34;250526;1151;22937;-78
2020/12/24 11:25:34;;;;;;;15.10;7.40;;;;;;;8.15;90.82;97708.74;250438;1148;23052;-77
2020/12/24 11:30:37;;;;;;;12.37;6.90;;;;;;;8.09;91.18;97712.61;250540;1148;23036;-78
2020/12/24 11:35:39;;;;;;;10.67;6.60;;;;;;;8.02;91.10;97718.34;250652;1148;23056;-77
2020/12/24 11:40:41;;;;;;;10.97;6.70;;;;;;;8.00;91.07;97749.84;250747;1148;22949;-77
2020/12/24 11:45:44;;;;;;;11.85;6.35;;;;;;;8.00;91.30;97755.98;250632;1148;22906;-77
2020/12/24 11:50:46;;;;;;;11.23;7.43;;;;;;;8.01;91.16;97746.09;250677;1148;23015;-79
2020/12/24 11:55:48;;;;;;;9.90;6.60;;;;;;;7.97;90.84;97721.87;250639;1148;22954;-78
2020/12/24 12:00:50;;;;;;;10.30;5.97;;;;;;;7.92;90.51;97722.00;250574;1153;25446;-76
2020/12/24 12:05:52;;;;;;;12.30;7.00;;;;;;;7.88;90.82;97705.78;250730;1148;22912;-78
2020/12/24 12:10:54;;;;;;;9.80;5.87;;;;;;;7.87;90.50;97679.42;250609;1148;22923;-78
2020/12/24 12:15:56;;;;;;;11.50;6.80;;;;;;;7.80;90.45;97673.70;250457;1148;22962;-77
2020/12/24 12:20:59;;;;;;;13.40;7.67;;;;;;;7.77;90.68;97682.30;250419;1156;22932;-77
2020/12/24 12:26:02;;;;;;;12.13;7.63;;;;;;;7.69;90.72;97708.56;250613;1148;22954;-77
2020/12/24 12:31:05;;;;;;;10.80;6.43;;;;;;;7.69;90.25;97691.77;251000;1148;26411;-76
2020/12/24 12:36:07;;;;;;;12.30;7.00;;;;;;;7.63;90.44;97683.07;250670;1147;22938;-79
2020/12/24 12:41:11;;;;;;;11.90;6.70;;;;;;;7.63;90.71;97661.75;250617;1155;22943;-76
2020/12/24 12:46:19;;;;;;;11.03;6.30;;;;;;;7.61;89.97;97621.29;250759;1148;22919;-79
2020/12/24 12:51:21;;;;;;;9.90;4.97;;;;;;;7.55;89.47;97635.78;250681;1148;22967;-76
2020/12/24 12:56:23;;;;;;;8.15;4.35;;;;;;;7.49;89.40;97634.31;250662;1147;23011;-77
2020/12/24 13:01:25;;;;;;;9.73;4.97;;;;;;;7.44;88.81;97634.40;250635;1148;22966;-77
2020/12/24 13:06:45;;;;;;;7.33;3.77;;;;;;;7.40;88.29;97636.07;250524;1147;23019;-77
2020/12/24 13:11:48;;;;;;;10.40;5.65;;;;;;;7.36;88.53;97652.66;250757;1148;22922;-78
2020/12/24 13:16:50;;;;;;;11.47;6.33;;;;;;;7.35;88.56;97661.72;250477;1147;23436;-76
2020/12/24 13:21:54;;;;;;;13.67;7.43;;;;;;;7.30;88.33;97643.19;250271;1150;23088;-78
2020/12/24 13:26:56;;;;;;;15.03;8.10;;;;;;;7.27;88.20;97635.76;250753;1148;22974;-76
2020/12/24 13:31:58;;;;;;;16.10;8.17;;;;;;;7.27;87.95;97642.97;250487;1150;22950;-77
2020/12/24 13:37:01;;;;;;;14.77;7.33;;;;;;;7.25;88.42;97656.59;250397;1148;23557;-75
2020/12/24 13:42:05;;;;;;;13.57;7.10;;;;;;;7.23;87.91;97644.64;250156;1155;22954;-75
2020/12/24 13:47:07;;;;;;;16.50;8.87;;;;;;;7.22;88.29;97661.70;250403;1148;22946;-76
2020/12/24 13:52:09;;;;;;;17.80;9.10;;;;;;;7.18;88.55;97651.63;250411;1153;22949;-78
2020/12/24 13:57:12;;;;;;;15.97;8.13;;;;;;;7.15;87.57;97670.09;250650;1147;22914;-77
2020/12/24 14:02:14;;;;;;;12.60;7.07;;;;;;;7.14;87.68;97665.84;250472;1147;22938;-75
2020/12/24 14:07:17;;;;;;;13.75;6.40;;;;;;;7.08;86.59;97666.99;250483;1147;22919;-80
2020/12/24 14:12:23;;;;;;;10.83;5.97;;;;;;;7.01;86.85;97662.84;250788;1147;22951;-77
2020/12/24 14:17:25;;;;;;;12.30;5.83;;;;;;;6.96;86.42;97660.26;250396;1148;24320;-76
2020/12/24 14:22:28;;;;;;;8.63;5.37;;;;;;;6.90;86.05;97647.31;250398;1151;22938;-75
2020/12/24 14:27:30;;;;;;;8.90;4.10;;;;;;;6.85;85.70;97640.21;250371;1148;22947;-77
2020/12/24 14:32:33;;;;;;;7.53;3.77;;;;;;;6.80;85.82;97625.13;250570;1153;22928;-77
2020/12/24 14:37:35;;;;;;;7.73;3.93;;;;;;;6.78;86.01;97626.48;250655;1148;22984;-76
2020/12/24 14:42:37;;;;;;;7.65;3.85;;;;;;;6.75;85.69;97632.40;250426;1152;22943;-77
2020/12/24 14:47:39;;;;;;;9.30;4.37;;;;;;;6.72;86.08;97614.36;250571;1148;23056;-77
2020/12/24 14:52:42;;;;;;;8.23;3.63;;;;;;;6.68;86.07;97614.91;250601;1152;22933;-75
2020/12/24 14:57:44;;;;;;;6.53;3.30;;;;;;;6.65;85.19;97641.34;250430;1147;22981;-77
2020/12/24 15:02:46;;;;;;;4.53;3.17;;;;;;;6.58;85.28;97639.03;250417;1152;22963;-77
2020/12/24 15:07:48;;;;;;;8.37;3.80;;;;;;;6.53;84.65;97656.95;250252;1148;22925;-76
2020/12/24 15:12:50;;;;;;;9.33;3.50;;;;;;;6.48;84.85;97641.86;250554;1152;22928;-77
2020/12/24 15:17:52;;;;;;;6.83;3.17;;;;;;;6.42;84.63;97648.32;250225;1148;22953;-76
2020/12/24 15:22:54;;;;;;;9.70;3.80;;;;;;;6.31;84.83;97627.20;250204;1155;22956;-79
2020/12/24 15:27:57;;;;;;;9.23;4.10;;;;;;;6.22;84.84;97615.62;250526;1148;22974;-78
2020/12/24 15:32:59;;;;;;;10.37;3.80;;;;;;;6.15;85.01;97631.92;250561;1153;23004;-78
2020/12/24 15:38:05;;;;;;;9.73;4.40;;;;;;;6.11;84.58;97630.13;250314;1148;23375;-76
2020/12/24 15:43:07;;;;;;;10.57;4.77;;;;;;;6.02;84.50;97632.65;250275;1155;22974;-75
2020/12/24 15:48:09;;;;;;;11.80;6.10;;;;;;;5.96;84.79;97639.06;250265;1155;22917;-77
2020/12/24 15:53:11;;;;;;;15.83;7.43;;;;;;;5.84;84.64;97642.14;250431;1147;22922;-77
2020/12/24 15:58:14;;;;;;;14.73;7.00;;;;;;;5.73;85.10;97646.00;250630;1148;22935;-76
2020/12/24 16:03:16;;;;;;;14.57;7.80;;;;;;;5.64;85.13;97648.50;250580;1148;23029;-77
2020/12/24 16:08:18;;;;;;;20.90;9.67;;;;;;;5.55;85.50;97629.72;250498;1147;22918;-77
2020/12/24 16:13:20;;;;;;;22.17;10.30;;;;;;;5.54;85.36;97620.19;250346;1153;23089;-77
2020/12/24 16:18:26;;;;;;;25.10;11.80;;;;;;;5.52;85.90;97609.03;250461;1148;22960;-77
2020/12/24 16:23:28;;;;;;;23.73;10.13;;;;;;;5.49;86.01;97593.67;250089;1156;22928;-76
2020/12/24 16:28:30;;;;;;;23.50;10.85;;;;;;;5.43;86.44;97592.16;250162;1148;23049;-75
2020/12/24 16:33:32;;;;;;;20.15;9.60;;;;;;;5.40;86.30;97590.05;250404;1151;23011;-76
2020/12/24 16:38:34;;;;;;;20.73;10.00;;;;;;;5.38;86.61;97577.06;250540;1148;22915;-76
2020/12/24 16:43:36;;;;;;;23.20;10.43;;;;;;;5.34;86.51;97581.35;250096;1148;22922;-75
2020/12/24 16:48:39;;;;;;;19.67;9.37;;;;;;;5.28;86.77;97570.00;250409;1147;25976;-76
2020/12/24 16:53:43;;;;;;;17.93;8.73;;;;;;;5.23;87.59;97572.73;250515;1148;23088;-75
2020/12/24 16:58:45;;;;;;;18.30;8.50;;;;;;;5.19;87.18;97582.33;250410;1148;23048;-77
2020/12/24 17:03:47;;;;;;;18.73;8.57;;;;;;;5.17;87.32;97571.19;250201;1150;22915;-77
2020/12/24 17:08:49;;;;;;;17.93;9.17;;;;;;;5.16;87.66;97580.22;250399;1148;22952;-76
2020/12/24 17:13:51;;;;;;;17.35;9.70;;;;;;;5.15;87.87;97583.97;250273;1148;22998;-78
2020/12/24 17:18:55;;;;;;;18.93;10.20;;;;;;;5.16;87.93;97592.70;250411;1147;26846;-76
2020/12/24 17:23:57;;;;;;;22.17;11.17;;;;;;;5.12;88.28;97579.20;250125;1148;22982;-77
2020/12/24 17:29:00;;;;;;;22.47;10.80;;;;;;;5.10;87.83;97584.01;250123;1156;22930;-77
2020/12/24 17:34:02;;;;;;;19.53;10.50;;;;;;;5.05;88.18;97584.05;250034;1151;22970;-77
2020/12/24 17:39:05;;;;;;;16.65;8.55;;;;;;;5.03;87.98;97591.52;250412;1148;22930;-78
2020/12/24 17:44:10;;;;;;;13.60;7.93;;;;;;;5.04;88.34;97591.23;250390;1148;23031;-75
2020/12/24 17:49:12;;;;;;;15.93;9.17;;;;;;;5.06;88.23;97590.95;250134;1148;26449;-77
2020/12/24 17:54:14;;;;;;;19.90;10.70;;;;;;;5.08;88.19;97583.52;250034;1148;22954;-76
2020/12/24 17:59:17;;;;;;;16.43;9.67;;;;;;;5.08;88.10;97586.16;250074;1156;22948;-75
2020/12/24 18:04:19;;;;;;;20.23;10.33;;;;;;;5.10;88.34;97592.75;250365;1148;22928;-77
2020/12/24 18:09:21;;;;;;;16.77;8.10;;;;;;;5.16;88.47;97592.70;250408;1147;22940;-76
2020/12/24 18:14:24;;;;;;;14.07;8.40;;;;;;;5.22;88.50;97589.72;250031;1151;23098;-76
2020/12/24 18:19:26;;;;;;;15.57;7.83;;;;;;;5.27;88.54;97589.68;250049;1156;24321;-76
2020/12/24 18:24:28;;;;;;;13.40;7.10;;;;;;;5.28;88.20;97590.45;250128;1151;22939;-75
2020/12/24 18:29:31;;;;;;;10.10;6.10;;;;;;;5.32;88.33;97578.20;250062;1155;23099;-77
2020/12/24 18:34:33;;;;;;;13.53;7.00;;;;;;;5.39;87.98;97585.83;250062;1148;23038;-76
2020/12/24 18:39:36;;;;;;;13.60;6.33;;;;;;;5.46;88.15;97586.28;249964;1155;22935;-77
2020/12/24 18:44:38;;;;;;;13.60;7.27;;;;;;;5.52;88.36;97587.78;250063;1147;22952;-76
2020/12/24 18:49:40;;;;;;;12.70;6.90;;;;;;;5.59;88.45;97596.20;250154;1148;23115;-77
2020/12/24 18:54:42;;;;;;;10.65;6.50;;;;;;;5.68;87.94;97596.38;249995;1148;22954;-77
2020/12/24 18:59:45;;;;;;;9.87;5.53;;;;;;;5.76;88.08;97593.06;250434;1152;22956;-75
2020/12/24 19:04:47;;;;;;;10.67;5.53;;;;;;;5.83;88.08;97601.50;250069;1148;23092;-76
2020/12/24 19:09:50;;;;;;;6.83;4.40;;;;;;;5.87;87.15;97595.61;250075;1148;23167;-76
2020/12/24 19:14:52;;;;;;;7.17;4.17;;;;;;;5.88;87.24;97597.98;249962;1150;23052;-81
2020/12/24 19:19:54;;;;;;;6.77;4.10;;;;;;;5.89;87.90;97585.47;250208;1148;26392;-76
2020/12/24 19:24:56;;;;;;;7.30;3.30;;;;;;;5.92;87.20;97584.91;250069;1148;22935;-76
2020/12/24 19:29:59;;;;;;;7.17;3.93;;;;;;;5.95;86.67;97581.67;250071;1150;26401;-78
2020/12/24 19:35:02;;;;;;;6.43;3.80;;;;;;;5.94;86.46;97586.19;250164;1148;27470;-76
2020/12/24 19:40:05;;;;;;;5.60;3.27;;;;;;;5.97;86.87;97587.48;250429;1153;22933;-77
2020/12/24 19:45:07;;;;;;;5.87;3.53;;;;;;;6.01;86.64;97575.23;250401;1147;22928;-76
2020/12/24 19:50:11;;;;;;;5.70;3.33;;;;;;;6.04;85.97;97587.16;250261;1155;22931;-76
2020/12/24 19:55:13;;;;;;;4.67;2.93;;;;;;;6.10;85.82;97591.32;250380;1148;23007;-77
2020/12/24 20:00:16;;;;;;;5.43;2.43;;;;;;;6.13;85.18;97604.84;250343;1152;22944;-76
2020/12/24 20:05:18;;;;;;;4.77;3.17;;;;;;;6.15;85.69;97604.55;250108;1148;22962;-76
2020/12/24 20:10:21;;;;;;;3.95;2.25;;;;;;;6.11;85.49;97617.65;250229;1151;22934;-78
2020/12/24 20:15:23;;;;;;;3.67;2.10;;;;;;;6.07;85.09;97618.48;250185;1148;23052;-77
2020/12/24 20:20:26;;;;;;;4.70;2.70;;;;;;;6.00;85.12;97621.49;250227;1155;22960;-76
2020/12/24 20:25:28;;;;;;;3.70;2.57;;;;;;;5.95;85.44;97611.70;250374;1148;23361;-77
2020/12/24 20:30:31;;;;;;;5.43;2.20;;;;;;;5.90;84.56;97619.73;250192;1155;23038;-77
2020/12/24 20:35:34;;;;;;;4.30;2.37;;;;;;;5.88;85.28;97621.90;250118;1148;22943;-77
2020/12/24 20:40:37;;;;;;;3.47;2.17;;;;;;;5.89;85.08;97610.20;250427;1148;23052;-76
2020/12/24 20:45:40;;;;;;;3.27;2.20;;;;;;;5.89;85.41;97604.88;250064;1148;23000;-77
2020/12/24 20:50:43;;;;;;;3.13;1.97;;;;;;;5.91;85.48;97609.91;250182;1155;22929;-76
2020/12/24 20:55:45;;;;;;;3.75;2.00;;;;;;;5.92;85.44;97612.28;250300;1148;22917;-74
2020/12/24 21:00:49;;;;;;;4.80;2.77;;;;;;;5.93;84.50;97619.19;250335;1152;22973;-75
2020/12/24 21:05:52;;;;;;;5.73;2.47;;;;;;;5.94;84.57;97623.41;250218;1148;23055;-76
2020/12/24 21:10:54;;;;;;;5.17;2.47;;;;;;;5.97;85.33;97665.41;250025;1150;22957;-78
2020/12/24 21:15:57;;;;;;;3.97;2.20;;;;;;;5.85;84.41;97704.87;250006;1148;23063;-78
2020/12/24 21:21:00;;;;;;;2.57;1.87;;;;;;;5.07;83.84;97727.92;250967;1150;22926;-77
2020/12/24 21:26:02;;;;;;;6.20;3.10;;;;;;;4.33;84.81;97717.25;249699;1151;23011;-74
2020/12/24 21:31:05;;;;;;;5.00;3.27;;;;;;;3.87;85.12;97737.55;249792;1148;26372;-75
2020/12/24 21:36:07;;;;;;;7.83;3.83;;;;;;;3.60;85.71;97732.61;250034;1147;23082;-72
2020/12/24 21:41:12;;;;;;;7.60;3.60;;;;;;;3.41;86.24;97741.12;250322;1152;23394;-75
2020/12/24 21:46:18;;;;;;;3.10;1.80;;;;;;;3.29;86.56;97756.47;250152;1150;22921;-73
2020/12/24 21:51:20;;;;;;;4.20;2.55;;;;;;;3.14;86.52;97767.06;249986;1155;22953;-76
2020/12/24 21:56:23;;;;;;;4.85;2.90;;;;;;;3.04;87.09;97773.14;250005;1148;23082;-74
2020/12/24 22:01:25;;;;;;;8.03;3.40;;;;;;;2.96;87.22;97779.73;250367;1148;22947;-75
2020/12/24 22:06:28;;;;;;;4.83;3.00;;;;;;;2.95;87.59;97786.08;249903;1148;22927;-76
2020/12/24 22:11:31;;;;;;;4.80;3.00;;;;;;;2.91;87.33;97779.75;249815;1149;22964;-73
2020/12/24 22:16:33;;;;;;;6.50;3.80;;;;;;;2.82;87.43;97786.59;249795;1151;22954;-75
2020/12/24 22:21:38;;;;;;;5.50;3.20;;;;;;;2.72;86.89;97780.22;249859;1151;23245;-76
2020/12/24 22:26:41;;;;;;;4.33;2.50;;;;;;;2.65;87.07;97786.83;249819;1151;23092;-72
2020/12/24 22:31:47;;;;;;;3.40;2.40;;;;;;;2.63;87.13;97794.20;249957;1156;22956;-74
2020/12/24 22:36:49;;;;;;;3.30;2.10;;;;;;;2.62;86.94;97787.35;249901;1148;22928;-74
2020/12/24 22:41:57;;;;;;;4.17;2.27;;;;;;;2.62;87.62;97774.91;250177;1148;23076;-73
2020/12/24 22:47:01;;;;;;;3.90;2.30;;;;;;;2.63;87.11;97789.73;249993;1148;22955;-75
2020/12/24 22:52:04;;;;;;;3.00;2.27;;;;;;;2.64;87.09;97809.03;250093;1150;23066;-75
2020/12/24 22:57:07;;;;;;;3.03;2.20;;;;;;;2.64;86.74;97803.73;250266;1148;22969;-74
2020/12/24 23:02:10;;;;;;;2.60;2.10;;;;;;;2.66;86.85;97812.20;250194;1153;22953;-75
2020/12/24 23:07:12;;;;;;;3.60;2.23;;;;;;;2.67;86.81;97801.38;249981;1148;24436;-75
2020/12/24 23:12:19;;;;;;;3.10;2.35;;;;;;;2.66;86.59;97804.26;250291;1148;22944;-71
2020/12/24 23:17:21;;;;;;;4.60;2.45;;;;;;;2.67;87.19;97801.38;249940;1148;22926;-75
2020/12/24 23:22:23;;;;;;;3.20;2.43;;;;;;;2.68;86.64;97810.09;249755;1156;23036;-73
2020/12/24 23:27:26;;;;;;;2.40;2.20;;;;;;;2.69;86.98;97815.13;249769;1148;22919;-75
2020/12/24 23:32:29;;;;;;;3.67;2.37;;;;;;;2.70;86.86;97821.20;250182;1148;22910;-75
2020/12/24 23:37:33;;;;;;;4.03;2.60;;;;;;;2.70;86.75;97811.44;250042;1148;23091;-75
2020/12/24 23:42:35;;;;;;;3.13;2.27;;;;;;;2.69;86.83;97814.34;250501;1147;22947;-74